sensor_id;sensor_type;location;lat;lon;timestamp;temperature;humidity
76789;DHT22;65740;52.464;13.446;2023-04-21T00:01:00;20.00;47.00
76789;DHT22;65740;52.464;13.446;2023-04-21T00:03:26;20.00;46.80
76789;DHT22;65740;52.464;13.446;2023-04-21T00:05:54;20.00;46.70
76789;DHT22;65740;52.464;13.446;2023-04-21T00:08:20;20.10;46.70
76789;DHT22;65740;52.464;13.446;2023-04-21T00:10:46;20.10;46.70
76789;DHT22;65740;52.464;13.446;2023-04-21T00:13:12;20.10;46.80
76789;DHT22;65740;52.464;13.446;2023-04-21T00:15:38;20.10;46.70
76789;DHT22;65740;52.464;13.446;2023-04-21T00:18:03;20.10;46.70
76789;DHT22;65740;52.464;13.446;2023-04-21T00:20:29;20.10;46.70
76789;DHT22;65740;52.464;13.446;2023-04-21T00:22:56;20.10;46.80
76789;DHT22;65740;52.464;13.446;2023-04-21T00:25:22;20.10;46.70
76789;DHT22;65740;52.464;13.446;2023-04-21T00:27:48;20.10;46.70
76789;DHT22;65740;52.464;13.446;2023-04-21T00:30:14;20.00;46.70
76789;DHT22;65740;52.464;13.446;2023-04-21T00:32:40;20.00;46.70
76789;DHT22;65740;52.464;13.446;2023-04-21T00:35:06;20.00;46.70
76789;DHT22;65740;52.464;13.446;2023-04-21T00:37:31;20.00;46.70
76789;DHT22;65740;52.464;13.446;2023-04-21T00:39:57;20.00;46.70
76789;DHT22;65740;52.464;13.446;2023-04-21T00:42:23;20.00;46.70
76789;DHT22;65740;52.464;13.446;2023-04-21T00:44:49;20.00;46.70
76789;DHT22;65740;52.464;13.446;2023-04-21T00:47:15;20.00;46.70
76789;DHT22;65740;52.464;13.446;2023-04-21T00:49:41;20.00;46.70
76789;DHT22;65740;52.464;13.446;2023-04-21T00:52:08;19.90;46.60
76789;DHT22;65740;52.464;13.446;2023-04-21T00:54:36;19.90;46.60
76789;DHT22;65740;52.464;13.446;2023-04-21T00:57:02;19.90;46.60
76789;DHT22;65740;52.464;13.446;2023-04-21T00:59:29;19.90;46.60
76789;DHT22;65740;52.464;13.446;2023-04-21T01:01:55;19.90;46.60
76789;DHT22;65740;52.464;13.446;2023-04-21T01:04:21;19.90;46.60
76789;DHT22;65740;52.464;13.446;2023-04-21T01:06:47;19.90;46.60
76789;DHT22;65740;52.464;13.446;2023-04-21T01:09:12;19.80;46.50
76789;DHT22;65740;52.464;13.446;2023-04-21T01:11:38;19.90;46.60
76789;DHT22;65740;52.464;13.446;2023-04-21T01:14:04;19.90;46.60
76789;DHT22;65740;52.464;13.446;2023-04-21T01:16:31;19.80;46.50
76789;DHT22;65740;52.464;13.446;2023-04-21T01:18:59;19.80;46.50
76789;DHT22;65740;52.464;13.446;2023-04-21T01:21:25;19.80;46.50
76789;DHT22;65740;52.464;13.446;2023-04-21T01:23:52;19.80;46.50
76789;DHT22;65740;52.464;13.446;2023-04-21T01:26:20;19.80;46.50
76789;DHT22;65740;52.464;13.446;2023-04-21T01:28:47;19.80;47.10
76789;DHT22;65740;52.464;13.446;2023-04-21T01:31:16;19.80;46.50
76789;DHT22;65740;52.464;13.446;2023-04-21T01:33:43;19.80;46.50
76789;DHT22;65740;52.464;13.446;2023-04-21T01:36:09;19.80;46.50
76789;DHT22;65740;52.464;13.446;2023-04-21T01:38:39;19.90;46.60
76789;DHT22;65740;52.464;13.446;2023-04-21T01:41:05;19.80;46.50
76789;DHT22;65740;52.464;13.446;2023-04-21T01:43:30;19.90;46.60
76789;DHT22;65740;52.464;13.446;2023-04-21T01:45:56;19.80;46.50
76789;DHT22;65740;52.464;13.446;2023-04-21T01:48:22;19.90;46.60
76789;DHT22;65740;52.464;13.446;2023-04-21T01:50:47;19.90;46.60
76789;DHT22;65740;52.464;13.446;2023-04-21T01:53:13;19.80;46.50
76789;DHT22;65740;52.464;13.446;2023-04-21T01:55:38;19.90;46.60
76789;DHT22;65740;52.464;13.446;2023-04-21T01:58:04;19.80;46.50
76789;DHT22;65740;52.464;13.446;2023-04-21T02:00:30;19.90;46.60
76789;DHT22;65740;52.464;13.446;2023-04-21T02:02:55;19.90;46.60
76789;DHT22;65740;52.464;13.446;2023-04-21T02:05:21;19.80;46.50
76789;DHT22;65740;52.464;13.446;2023-04-21T02:07:47;19.80;46.50
76789;DHT22;65740;52.464;13.446;2023-04-21T02:10:12;19.80;46.50
76789;DHT22;65740;52.464;13.446;2023-04-21T02:12:38;19.80;46.50
76789;DHT22;65740;52.464;13.446;2023-04-21T02:15:04;19.80;46.50
76789;DHT22;65740;52.464;13.446;2023-04-21T02:17:31;19.70;46.50
76789;DHT22;65740;52.464;13.446;2023-04-21T02:19:57;19.80;46.50
76789;DHT22;65740;52.464;13.446;2023-04-21T02:22:23;19.80;46.50
76789;DHT22;65740;52.464;13.446;2023-04-21T02:24:49;19.70;46.40
76789;DHT22;65740;52.464;13.446;2023-04-21T02:27:14;19.70;47.10
76789;DHT22;65740;52.464;13.446;2023-04-21T02:29:40;19.70;46.40
76789;DHT22;65740;52.464;13.446;2023-04-21T02:32:06;19.70;46.40
76789;DHT22;65740;52.464;13.446;2023-04-21T02:34:32;19.70;46.40
76789;DHT22;65740;52.464;13.446;2023-04-21T02:36:57;19.70;46.40
76789;DHT22;65740;52.464;13.446;2023-04-21T02:39:24;19.70;46.40
76789;DHT22;65740;52.464;13.446;2023-04-21T02:41:49;19.70;46.40
76789;DHT22;65740;52.464;13.446;2023-04-21T02:44:15;19.70;46.40
76789;DHT22;65740;52.464;13.446;2023-04-21T02:46:41;19.70;46.40
76789;DHT22;65740;52.464;13.446;2023-04-21T02:49:07;19.70;46.30
76789;DHT22;65740;52.464;13.446;2023-04-21T02:51:32;19.70;46.10
76789;DHT22;65740;52.464;13.446;2023-04-21T02:53:58;19.70;46.00
76789;DHT22;65740;52.464;13.446;2023-04-21T02:56:23;19.70;46.00
76789;DHT22;65740;52.464;13.446;2023-04-21T02:58:49;19.70;45.90
76789;DHT22;65740;52.464;13.446;2023-04-21T03:01:14;19.70;45.90
76789;DHT22;65740;52.464;13.446;2023-04-21T03:03:40;19.70;45.80
76789;DHT22;65740;52.464;13.446;2023-04-21T03:06:06;19.70;45.80
76789;DHT22;65740;52.464;13.446;2023-04-21T03:08:32;19.70;45.70
76789;DHT22;65740;52.464;13.446;2023-04-21T03:10:57;19.70;45.60
76789;DHT22;65740;52.464;13.446;2023-04-21T03:13:23;19.70;45.60
76789;DHT22;65740;52.464;13.446;2023-04-21T03:15:49;19.70;45.60
76789;DHT22;65740;52.464;13.446;2023-04-21T03:18:15;19.70;45.60
76789;DHT22;65740;52.464;13.446;2023-04-21T03:20:42;19.70;45.70
76789;DHT22;65740;52.464;13.446;2023-04-21T03:23:07;19.70;45.50
76789;DHT22;65740;52.464;13.446;2023-04-21T03:25:33;19.70;45.50
76789;DHT22;65740;52.464;13.446;2023-04-21T03:27:59;19.70;45.60
76789;DHT22;65740;52.464;13.446;2023-04-21T03:30:24;19.60;45.50
76789;DHT22;65740;52.464;13.446;2023-04-21T03:32:51;19.60;45.60
76789;DHT22;65740;52.464;13.446;2023-04-21T03:35:16;19.60;45.60
76789;DHT22;65740;52.464;13.446;2023-04-21T03:37:42;19.60;46.30
76789;DHT22;65740;52.464;13.446;2023-04-21T03:40:09;19.60;45.70
76789;DHT22;65740;52.464;13.446;2023-04-21T03:42:35;19.60;45.70
76789;DHT22;65740;52.464;13.446;2023-04-21T03:45:02;19.60;45.70
76789;DHT22;65740;52.464;13.446;2023-04-21T03:47:28;19.50;45.50
76789;DHT22;65740;52.464;13.446;2023-04-21T03:49:53;19.50;45.70
76789;DHT22;65740;52.464;13.446;2023-04-21T03:52:19;19.50;45.60
76789;DHT22;65740;52.464;13.446;2023-04-21T03:54:44;19.50;45.60
76789;DHT22;65740;52.464;13.446;2023-04-21T03:57:11;19.50;45.60
76789;DHT22;65740;52.464;13.446;2023-04-21T03:59:37;19.50;45.80
76789;DHT22;65740;52.464;13.446;2023-04-21T04:02:02;19.50;45.60
76789;DHT22;65740;52.464;13.446;2023-04-21T04:04:28;19.50;45.60
76789;DHT22;65740;52.464;13.446;2023-04-21T04:06:53;19.50;45.60
76789;DHT22;65740;52.464;13.446;2023-04-21T04:09:19;19.50;45.50
76789;DHT22;65740;52.464;13.446;2023-04-21T04:11:45;19.50;45.40
76789;DHT22;65740;52.464;13.446;2023-04-21T04:14:10;19.50;45.40
76789;DHT22;65740;52.464;13.446;2023-04-21T04:16:36;19.50;45.40
76789;DHT22;65740;52.464;13.446;2023-04-21T04:19:01;19.50;45.30
76789;DHT22;65740;52.464;13.446;2023-04-21T04:21:28;19.50;45.30
76789;DHT22;65740;52.464;13.446;2023-04-21T04:23:54;19.50;45.30
76789;DHT22;65740;52.464;13.446;2023-04-21T04:26:19;19.50;45.10
76789;DHT22;65740;52.464;13.446;2023-04-21T04:28:47;19.60;45.10
76789;DHT22;65740;52.464;13.446;2023-04-21T04:31:12;19.60;45.00
76789;DHT22;65740;52.464;13.446;2023-04-21T04:33:42;19.60;45.10
76789;DHT22;65740;52.464;13.446;2023-04-21T04:36:08;19.60;45.00
76789;DHT22;65740;52.464;13.446;2023-04-21T04:38:33;19.60;44.90
76789;DHT22;65740;52.464;13.446;2023-04-21T04:41:02;19.60;44.90
76789;DHT22;65740;52.464;13.446;2023-04-21T04:43:29;19.60;45.10
76789;DHT22;65740;52.464;13.446;2023-04-21T04:45:58;19.60;44.90
76789;DHT22;65740;52.464;13.446;2023-04-21T04:48:23;19.60;45.10
76789;DHT22;65740;52.464;13.446;2023-04-21T04:50:49;19.60;44.90
76789;DHT22;65740;52.464;13.446;2023-04-21T04:53:15;19.60;45.00
76789;DHT22;65740;52.464;13.446;2023-04-21T04:55:41;19.60;45.10
76789;DHT22;65740;52.464;13.446;2023-04-21T04:58:06;19.60;45.10
76789;DHT22;65740;52.464;13.446;2023-04-21T05:00:32;19.50;45.10
76789;DHT22;65740;52.464;13.446;2023-04-21T05:02:58;19.50;45.20
76789;DHT22;65740;52.464;13.446;2023-04-21T05:05:23;19.40;45.00
76789;DHT22;65740;52.464;13.446;2023-04-21T05:07:49;19.50;45.20
76789;DHT22;65740;52.464;13.446;2023-04-21T05:10:15;19.40;45.00
76789;DHT22;65740;52.464;13.446;2023-04-21T05:12:41;19.40;45.10
76789;DHT22;65740;52.464;13.446;2023-04-21T05:15:07;19.40;45.10
76789;DHT22;65740;52.464;13.446;2023-04-21T05:17:33;19.40;45.10
76789;DHT22;65740;52.464;13.446;2023-04-21T05:19:59;19.30;45.10
76789;DHT22;65740;52.464;13.446;2023-04-21T05:22:25;19.40;45.10
76789;DHT22;65740;52.464;13.446;2023-04-21T05:24:51;19.40;45.00
76789;DHT22;65740;52.464;13.446;2023-04-21T05:27:17;19.40;45.10
76789;DHT22;65740;52.464;13.446;2023-04-21T05:29:42;19.30;45.00
76789;DHT22;65740;52.464;13.446;2023-04-21T05:32:08;19.40;45.10
76789;DHT22;65740;52.464;13.446;2023-04-21T05:34:36;19.30;45.00
76789;DHT22;65740;52.464;13.446;2023-04-21T05:37:02;19.40;45.00
76789;DHT22;65740;52.464;13.446;2023-04-21T05:39:28;19.30;44.90
76789;DHT22;65740;52.464;13.446;2023-04-21T05:41:54;19.30;44.90
76789;DHT22;65740;52.464;13.446;2023-04-21T05:44:19;19.40;44.90
76789;DHT22;65740;52.464;13.446;2023-04-21T05:46:45;19.40;44.80
76789;DHT22;65740;52.464;13.446;2023-04-21T05:49:11;19.40;44.80
76789;DHT22;65740;52.464;13.446;2023-04-21T05:51:36;19.50;44.90
76789;DHT22;65740;52.464;13.446;2023-04-21T05:54:02;19.50;44.70
76789;DHT22;65740;52.464;13.446;2023-04-21T05:56:27;19.50;44.70
76789;DHT22;65740;52.464;13.446;2023-04-21T05:58:53;19.60;44.70
76789;DHT22;65740;52.464;13.446;2023-04-21T06:01:19;19.60;44.40
76789;DHT22;65740;52.464;13.446;2023-04-21T06:03:44;19.60;44.40
76789;DHT22;65740;52.464;13.446;2023-04-21T06:06:13;19.60;44.30
76789;DHT22;65740;52.464;13.446;2023-04-21T06:08:39;19.60;44.30
76789;DHT22;65740;52.464;13.446;2023-04-21T06:11:05;19.60;44.30
76789;DHT22;65740;52.464;13.446;2023-04-21T06:13:30;19.60;44.30
76789;DHT22;65740;52.464;13.446;2023-04-21T06:15:56;19.60;44.40
76789;DHT22;65740;52.464;13.446;2023-04-21T06:18:21;19.60;44.50
76789;DHT22;65740;52.464;13.446;2023-04-21T06:20:52;19.60;44.40
76789;DHT22;65740;52.464;13.446;2023-04-21T06:23:18;19.60;44.40
76789;DHT22;65740;52.464;13.446;2023-04-21T06:25:44;19.60;44.40
76789;DHT22;65740;52.464;13.446;2023-04-21T06:28:09;19.60;44.50
76789;DHT22;65740;52.464;13.446;2023-04-21T06:30:35;19.60;44.50
76789;DHT22;65740;52.464;13.446;2023-04-21T06:33:00;19.60;44.50
76789;DHT22;65740;52.464;13.446;2023-04-21T06:35:26;19.60;44.50
76789;DHT22;65740;52.464;13.446;2023-04-21T06:37:52;19.50;44.40
76789;DHT22;65740;52.464;13.446;2023-04-21T06:40:17;19.50;44.50
76789;DHT22;65740;52.464;13.446;2023-04-21T06:42:43;19.50;44.50
76789;DHT22;65740;52.464;13.446;2023-04-21T06:45:09;19.50;44.60
76789;DHT22;65740;52.464;13.446;2023-04-21T06:47:35;19.50;44.60
76789;DHT22;65740;52.464;13.446;2023-04-21T06:50:00;19.50;44.70
76789;DHT22;65740;52.464;13.446;2023-04-21T06:52:26;19.50;44.70
76789;DHT22;65740;52.464;13.446;2023-04-21T06:54:52;19.50;44.70
76789;DHT22;65740;52.464;13.446;2023-04-21T06:57:18;19.50;44.70
76789;DHT22;65740;52.464;13.446;2023-04-21T06:59:43;19.50;44.70
76789;DHT22;65740;52.464;13.446;2023-04-21T07:02:09;19.40;44.70
76789;DHT22;65740;52.464;13.446;2023-04-21T07:04:35;19.50;44.70
76789;DHT22;65740;52.464;13.446;2023-04-21T07:07:01;19.50;44.70
76789;DHT22;65740;52.464;13.446;2023-04-21T07:09:26;19.50;44.70
76789;DHT22;65740;52.464;13.446;2023-04-21T07:11:58;19.50;44.70
76789;DHT22;65740;52.464;13.446;2023-04-21T07:14:23;19.50;45.10
76789;DHT22;65740;52.464;13.446;2023-04-21T07:16:50;19.60;45.00
76789;DHT22;65740;52.464;13.446;2023-04-21T07:19:15;19.50;45.20
76789;DHT22;65740;52.464;13.446;2023-04-21T07:21:41;19.60;45.00
76789;DHT22;65740;52.464;13.446;2023-04-21T07:24:08;19.60;45.10
76789;DHT22;65740;52.464;13.446;2023-04-21T07:26:33;19.60;45.10
76789;DHT22;65740;52.464;13.446;2023-04-21T07:28:59;19.70;45.10
76789;DHT22;65740;52.464;13.446;2023-04-21T07:31:25;19.70;45.10
76789;DHT22;65740;52.464;13.446;2023-04-21T07:33:50;19.70;45.20
76789;DHT22;65740;52.464;13.446;2023-04-21T07:36:16;19.70;45.10
76789;DHT22;65740;52.464;13.446;2023-04-21T07:38:42;19.70;45.20
76789;DHT22;65740;52.464;13.446;2023-04-21T07:41:12;19.70;45.10
76789;DHT22;65740;52.464;13.446;2023-04-21T07:43:38;19.80;45.20
76789;DHT22;65740;52.464;13.446;2023-04-21T07:46:05;19.80;45.10
76789;DHT22;65740;52.464;13.446;2023-04-21T07:48:31;19.80;45.20
76789;DHT22;65740;52.464;13.446;2023-04-21T07:50:56;19.80;45.20
76789;DHT22;65740;52.464;13.446;2023-04-21T07:53:26;19.80;45.20
76789;DHT22;65740;52.464;13.446;2023-04-21T07:55:52;19.80;45.30
76789;DHT22;65740;52.464;13.446;2023-04-21T07:58:18;19.80;45.40
76789;DHT22;65740;52.464;13.446;2023-04-21T08:00:44;19.80;45.30
76789;DHT22;65740;52.464;13.446;2023-04-21T08:03:09;19.90;45.40
76789;DHT22;65740;52.464;13.446;2023-04-21T08:05:36;19.90;45.50
76789;DHT22;65740;52.464;13.446;2023-04-21T08:08:02;19.90;45.50
76789;DHT22;65740;52.464;13.446;2023-04-21T08:10:27;19.90;45.40
76789;DHT22;65740;52.464;13.446;2023-04-21T08:12:53;19.90;45.60
76789;DHT22;65740;52.464;13.446;2023-04-21T08:15:19;19.90;45.70
76789;DHT22;65740;52.464;13.446;2023-04-21T08:17:44;19.90;45.50
76789;DHT22;65740;52.464;13.446;2023-04-21T08:20:10;19.90;45.50
76789;DHT22;65740;52.464;13.446;2023-04-21T08:22:36;19.80;44.60
76789;DHT22;65740;52.464;13.446;2023-04-21T08:25:03;19.70;43.30
76789;DHT22;65740;52.464;13.446;2023-04-21T08:27:28;19.70;42.50
76789;DHT22;65740;52.464;13.446;2023-04-21T08:29:54;19.50;42.20
76789;DHT22;65740;52.464;13.446;2023-04-21T08:32:20;19.40;42.10
76789;DHT22;65740;52.464;13.446;2023-04-21T08:34:52;19.40;41.60
76789;DHT22;65740;52.464;13.446;2023-04-21T08:37:19;19.40;41.40
76789;DHT22;65740;52.464;13.446;2023-04-21T08:39:45;19.30;41.10
76789;DHT22;65740;52.464;13.446;2023-04-21T08:42:18;19.40;40.60
76789;DHT22;65740;52.464;13.446;2023-04-21T08:44:44;19.30;40.30
76789;DHT22;65740;52.464;13.446;2023-04-21T08:47:12;19.30;40.20
76789;DHT22;65740;52.464;13.446;2023-04-21T08:49:39;19.30;39.70
76789;DHT22;65740;52.464;13.446;2023-04-21T08:52:05;19.40;39.60
76789;DHT22;65740;52.464;13.446;2023-04-21T08:54:32;19.40;39.30
76789;DHT22;65740;52.464;13.446;2023-04-21T08:56:58;19.50;38.90
76789;DHT22;65740;52.464;13.446;2023-04-21T08:59:24;19.60;38.60
76789;DHT22;65740;52.464;13.446;2023-04-21T09:02:13;19.80;38.30
76789;DHT22;65740;52.464;13.446;2023-04-21T09:04:47;19.90;38.10
76789;DHT22;65740;52.464;13.446;2023-04-21T09:07:30;20.00;37.60
76789;DHT22;65740;52.464;13.446;2023-04-21T09:09:57;20.10;37.70
76789;DHT22;65740;52.464;13.446;2023-04-21T09:12:23;20.10;37.70
76789;DHT22;65740;52.464;13.446;2023-04-21T09:14:48;20.10;37.70
76789;DHT22;65740;52.464;13.446;2023-04-21T09:17:15;20.20;37.80
76789;DHT22;65740;52.464;13.446;2023-04-21T09:19:41;20.10;37.70
76789;DHT22;65740;52.464;13.446;2023-04-21T09:22:07;20.10;37.70
76789;DHT22;65740;52.464;13.446;2023-04-21T09:24:33;20.10;37.70
76789;DHT22;65740;52.464;13.446;2023-04-21T09:27:02;20.00;37.60
76789;DHT22;65740;52.464;13.446;2023-04-21T09:29:29;20.00;37.60
76789;DHT22;65740;52.464;13.446;2023-04-21T09:31:54;20.00;37.60
76789;DHT22;65740;52.464;13.446;2023-04-21T09:34:25;20.00;37.60
76789;DHT22;65740;52.464;13.446;2023-04-21T09:37:01;20.00;37.60
76789;DHT22;65740;52.464;13.446;2023-04-21T09:39:30;20.00;37.60
76789;DHT22;65740;52.464;13.446;2023-04-21T09:41:57;20.00;37.60
76789;DHT22;65740;52.464;13.446;2023-04-21T09:44:24;19.90;37.60
76789;DHT22;65740;52.464;13.446;2023-04-21T09:46:52;19.90;37.60
76789;DHT22;65740;52.464;13.446;2023-04-21T09:49:21;19.90;38.30
76789;DHT22;65740;52.464;13.446;2023-04-21T09:51:47;20.00;38.10
76789;DHT22;65740;52.464;13.446;2023-04-21T09:54:19;20.00;38.20
76789;DHT22;65740;52.464;13.446;2023-04-21T09:56:48;20.10;38.40
76789;DHT22;65740;52.464;13.446;2023-04-21T09:59:19;20.20;38.70
76789;DHT22;65740;52.464;13.446;2023-04-21T10:01:48;20.20;38.60
76789;DHT22;65740;52.464;13.446;2023-04-21T10:04:16;20.20;39.00
76789;DHT22;65740;52.464;13.446;2023-04-21T10:06:43;20.30;38.60
76789;DHT22;65740;52.464;13.446;2023-04-21T10:09:10;20.30;38.60
76789;DHT22;65740;52.464;13.446;2023-04-21T10:11:37;20.30;37.90
76789;DHT22;65740;52.464;13.446;2023-04-21T10:14:03;20.30;38.30
76789;DHT22;65740;52.464;13.446;2023-04-21T10:16:30;20.40;37.90
76789;DHT22;65740;52.464;13.446;2023-04-21T10:19:00;20.50;38.00
76789;DHT22;65740;52.464;13.446;2023-04-21T10:21:26;20.40;37.90
76789;DHT22;65740;52.464;13.446;2023-04-21T10:23:53;20.40;37.90
76789;DHT22;65740;52.464;13.446;2023-04-21T10:26:27;20.40;37.90
76789;DHT22;65740;52.464;13.446;2023-04-21T10:29:03;20.50;38.00
76789;DHT22;65740;52.464;13.446;2023-04-21T10:31:31;20.50;38.70
76789;DHT22;65740;52.464;13.446;2023-04-21T10:39:27;20.50;37.60
76789;DHT22;65740;52.464;13.446;2023-04-21T10:41:57;20.50;38.00
76789;DHT22;65740;52.464;13.446;2023-04-21T10:47:34;20.50;38.00
76789;DHT22;65740;52.464;13.446;2023-04-21T10:50:14;20.60;38.10
76789;DHT22;65740;52.464;13.446;2023-04-21T10:52:43;20.60;38.10
76789;DHT22;65740;52.464;13.446;2023-04-21T10:55:09;20.60;38.10
76789;DHT22;65740;52.464;13.446;2023-04-21T10:57:41;20.60;38.10
76789;DHT22;65740;52.464;13.446;2023-04-21T11:00:13;20.70;37.70
76789;DHT22;65740;52.464;13.446;2023-04-21T11:02:39;20.70;38.20
76789;DHT22;65740;52.464;13.446;2023-04-21T11:05:08;20.70;38.20
76789;DHT22;65740;52.464;13.446;2023-04-21T11:07:34;20.70;38.20
76789;DHT22;65740;52.464;13.446;2023-04-21T11:10:01;20.70;38.20
76789;DHT22;65740;52.464;13.446;2023-04-21T11:12:31;20.60;38.40
76789;DHT22;65740;52.464;13.446;2023-04-21T11:14:57;20.60;38.10
76789;DHT22;65740;52.464;13.446;2023-04-21T11:17:23;20.60;38.10
76789;DHT22;65740;52.464;13.446;2023-04-21T11:19:51;20.60;39.30
76789;DHT22;65740;52.464;13.446;2023-04-21T11:22:18;20.80;39.00
76789;DHT22;65740;52.464;13.446;2023-04-21T11:24:45;20.80;38.30
76789;DHT22;65740;52.464;13.446;2023-04-21T11:27:10;20.90;38.70
76789;DHT22;65740;52.464;13.446;2023-04-21T11:29:37;20.90;38.70
76789;DHT22;65740;52.464;13.446;2023-04-21T11:32:05;20.90;38.40
76789;DHT22;65740;52.464;13.446;2023-04-21T11:34:31;20.80;38.80
76789;DHT22;65740;52.464;13.446;2023-04-21T11:36:57;20.90;39.40
76789;DHT22;65740;52.464;13.446;2023-04-21T11:39:22;20.90;38.40
76789;DHT22;65740;52.464;13.446;2023-04-21T11:41:49;21.00;38.50
76789;DHT22;65740;52.464;13.446;2023-04-21T11:44:36;21.00;38.50
76789;DHT22;65740;52.464;13.446;2023-04-21T11:47:12;21.00;38.70
76789;DHT22;65740;52.464;13.446;2023-04-21T11:49:47;20.90;39.00
76789;DHT22;65740;52.464;13.446;2023-04-21T11:57:26;21.10;38.50
76789;DHT22;65740;52.464;13.446;2023-04-21T11:59:52;21.10;38.80
76789;DHT22;65740;52.464;13.446;2023-04-21T12:02:26;21.10;39.10
76789;DHT22;65740;52.464;13.446;2023-04-21T12:05:04;21.20;39.50
76789;DHT22;65740;52.464;13.446;2023-04-21T12:07:39;21.20;38.90
76789;DHT22;65740;52.464;13.446;2023-04-21T12:10:13;21.30;39.40
76789;DHT22;65740;52.464;13.446;2023-04-21T12:12:41;21.30;39.30
76789;DHT22;65740;52.464;13.446;2023-04-21T12:15:08;21.40;40.10
76789;DHT22;65740;52.464;13.446;2023-04-21T12:17:51;21.40;38.80
76789;DHT22;65740;52.464;13.446;2023-04-21T12:20:21;21.40;38.80
76789;DHT22;65740;52.464;13.446;2023-04-21T12:22:48;21.40;39.40
76789;DHT22;65740;52.464;13.446;2023-04-21T12:25:14;21.40;38.80
76789;DHT22;65740;52.464;13.446;2023-04-21T12:27:56;21.40;38.80
76789;DHT22;65740;52.464;13.446;2023-04-21T12:30:22;21.40;39.10
76789;DHT22;65740;52.464;13.446;2023-04-21T12:32:48;21.50;38.30
76789;DHT22;65740;52.464;13.446;2023-04-21T12:35:14;21.50;38.80
76789;DHT22;65740;52.464;13.446;2023-04-21T12:37:40;21.50;37.90
76789;DHT22;65740;52.464;13.446;2023-04-21T12:40:06;21.60;42.20
76789;DHT22;65740;52.464;13.446;2023-04-21T12:42:32;21.60;37.60
76789;DHT22;65740;52.464;13.446;2023-04-21T12:44:58;21.60;40.40
76789;DHT22;65740;52.464;13.446;2023-04-21T12:47:23;21.50;40.10
76789;DHT22;65740;52.464;13.446;2023-04-21T12:49:49;21.60;41.60
76789;DHT22;65740;52.464;13.446;2023-04-21T12:52:15;21.60;41.70
76789;DHT22;65740;52.464;13.446;2023-04-21T12:54:40;21.60;39.00
76789;DHT22;65740;52.464;13.446;2023-04-21T12:57:07;21.60;39.00
76789;DHT22;65740;52.464;13.446;2023-04-21T12:59:33;21.60;38.50
76789;DHT22;65740;52.464;13.446;2023-04-21T13:01:59;21.70;39.10
76789;DHT22;65740;52.464;13.446;2023-04-21T13:04:24;21.60;39.00
76789;DHT22;65740;52.464;13.446;2023-04-21T13:06:51;21.70;38.00
76789;DHT22;65740;52.464;13.446;2023-04-21T13:09:16;21.70;37.30
76789;DHT22;65740;52.464;13.446;2023-04-21T13:11:42;21.70;39.10
76789;DHT22;65740;52.464;13.446;2023-04-21T13:14:08;21.80;39.60
76789;DHT22;65740;52.464;13.446;2023-04-21T13:16:33;21.80;41.20
76789;DHT22;65740;52.464;13.446;2023-04-21T13:18:59;21.80;39.10
76789;DHT22;65740;52.464;13.446;2023-04-21T13:21:25;21.80;40.40
76789;DHT22;65740;52.464;13.446;2023-04-21T13:23:50;21.80;39.10
76789;DHT22;65740;52.464;13.446;2023-04-21T13:26:17;21.90;41.50
76789;DHT22;65740;52.464;13.446;2023-04-21T13:28:43;21.90;39.80
76789;DHT22;65740;52.464;13.446;2023-04-21T13:31:09;21.90;39.90
76789;DHT22;65740;52.464;13.446;2023-04-21T13:33:34;21.90;40.60
76789;DHT22;65740;52.464;13.446;2023-04-21T13:36:01;21.90;42.50
76789;DHT22;65740;52.464;13.446;2023-04-21T13:38:28;21.90;37.20
76789;DHT22;65740;52.464;13.446;2023-04-21T13:40:54;22.00;43.50
76789;DHT22;65740;52.464;13.446;2023-04-21T13:43:20;22.00;41.00
76789;DHT22;65740;52.464;13.446;2023-04-21T13:45:45;22.00;41.30
76789;DHT22;65740;52.464;13.446;2023-04-21T13:48:14;22.00;43.90
76789;DHT22;65740;52.464;13.446;2023-04-21T13:50:39;22.00;41.60
76789;DHT22;65740;52.464;13.446;2023-04-21T13:53:05;22.00;41.60
76789;DHT22;65740;52.464;13.446;2023-04-21T13:55:32;22.00;40.70
76789;DHT22;65740;52.464;13.446;2023-04-21T13:57:58;21.90;41.90
76789;DHT22;65740;52.464;13.446;2023-04-21T14:00:25;22.00;39.30
76789;DHT22;65740;52.464;13.446;2023-04-21T14:02:51;22.00;43.00
76789;DHT22;65740;52.464;13.446;2023-04-21T14:05:17;22.00;41.90
76789;DHT22;65740;52.464;13.446;2023-04-21T14:07:43;22.10;39.40
76789;DHT22;65740;52.464;13.446;2023-04-21T14:10:09;22.10;39.40
76789;DHT22;65740;52.464;13.446;2023-04-21T14:12:36;22.10;37.20
76789;DHT22;65740;52.464;13.446;2023-04-21T14:15:02;22.10;36.80
76789;DHT22;65740;52.464;13.446;2023-04-21T14:17:28;22.00;42.10
76789;DHT22;65740;52.464;13.446;2023-04-21T14:19:54;22.10;39.40
76789;DHT22;65740;52.464;13.446;2023-04-21T14:22:19;22.10;36.30
76789;DHT22;65740;52.464;13.446;2023-04-21T14:24:45;22.00;38.40
76789;DHT22;65740;52.464;13.446;2023-04-21T14:27:10;22.00;40.60
76789;DHT22;65740;52.464;13.446;2023-04-21T14:29:36;22.00;41.40
76789;DHT22;65740;52.464;13.446;2023-04-21T14:32:02;22.10;39.40
76789;DHT22;65740;52.464;13.446;2023-04-21T14:34:27;22.10;37.00
76789;DHT22;65740;52.464;13.446;2023-04-21T14:36:53;22.10;37.00
76789;DHT22;65740;52.464;13.446;2023-04-21T14:39:19;22.20;40.00
76789;DHT22;65740;52.464;13.446;2023-04-21T14:41:45;22.20;41.30
76789;DHT22;65740;52.464;13.446;2023-04-21T14:44:10;22.20;37.80
76789;DHT22;65740;52.464;13.446;2023-04-21T14:46:36;22.20;39.70
76789;DHT22;65740;52.464;13.446;2023-04-21T14:49:03;22.20;37.70
76789;DHT22;65740;52.464;13.446;2023-04-21T14:51:29;22.20;36.30
76789;DHT22;65740;52.464;13.446;2023-04-21T14:53:56;22.00;36.90
76789;DHT22;65740;52.464;13.446;2023-04-21T14:56:22;22.00;36.70
76789;DHT22;65740;52.464;13.446;2023-04-21T14:58:47;22.00;37.60
76789;DHT22;65740;52.464;13.446;2023-04-21T15:01:13;22.00;35.50
76789;DHT22;65740;52.464;13.446;2023-04-21T15:03:39;22.00;37.90
76789;DHT22;65740;52.464;13.446;2023-04-21T15:06:04;22.00;36.70
76789;DHT22;65740;52.464;13.446;2023-04-21T15:08:30;22.10;42.30
76789;DHT22;65740;52.464;13.446;2023-04-21T15:10:56;22.10;35.80
76789;DHT22;65740;52.464;13.446;2023-04-21T15:13:22;22.10;38.90
76789;DHT22;65740;52.464;13.446;2023-04-21T15:15:48;22.20;35.50
76789;DHT22;65740;52.464;13.446;2023-04-21T15:18:16;22.10;39.00
76789;DHT22;65740;52.464;13.446;2023-04-21T15:20:42;22.10;39.40
76789;DHT22;65740;52.464;13.446;2023-04-21T15:23:10;22.10;34.50
76789;DHT22;65740;52.464;13.446;2023-04-21T15:25:36;22.10;35.80